Time;durP1;ratioP1;P1;durP2;ratioP2;P2;SDS_P1;SDS_P2;PMS_P1;PMS_P2;Temp;Humidity;BMP_temperature;BMP_pressure;BME280_temperature;BME280_humidity;BME280_pressure;Samples;Min_cycle;Max_cycle;Signal;HPM_P1;HPM_P2
2022/12/11 00:01:18;;;;;;;23.77;16.33;;;;;;;-0.38;83.95;98124.00;5032660;27;103202;-61
2022/12/11 00:03:48;;;;;;;18.27;13.43;;;;;;;-0.31;84.03;98120.28;5013495;27;102657;-61
2022/12/11 00:06:19;;;;;;;19.93;15.70;;;;;;;-0.33;83.29;98122.06;5038079;27;104506;-61
2022/12/11 00:08:47;;;;;;;17.80;12.37;;;;;;;-0.49;83.99;98123.56;5031320;27;103188;-63
2022/12/11 00:11:16;;;;;;;17.47;12.33;;;;;;;-0.26;84.63;98116.63;5013207;27;103261;-61
2022/12/11 00:13:44;;;;;;;17.53;13.20;;;;;;;-0.19;83.90;98112.84;5034497;27;102609;-62
2022/12/11 00:16:12;;;;;;;18.60;14.00;;;;;;;-0.36;82.67;98129.97;5034321;27;102709;-62
2022/12/11 00:18:41;;;;;;;20.13;14.63;;;;;;;-0.26;83.57;98120.94;5027734;27;104100;-62
2022/12/11 00:21:13;;;;;;;21.13;15.07;;;;;;;-0.20;83.43;98118.97;5035593;27;103231;-62
2022/12/11 00:23:42;;;;;;;23.43;16.90;;;;;;;-0.27;83.37;98114.91;5029282;27;102695;-62
2022/12/11 00:26:14;;;;;;;19.53;14.37;;;;;;;-0.22;83.68;98125.09;5034909;27;103243;-61
2022/12/11 00:28:43;;;;;;;17.13;12.13;;;;;;;-0.23;83.68;98120.84;5030374;27;103265;-61
2022/12/11 00:31:17;;;;;;;21.37;14.00;;;;;;;-0.10;84.14;98114.25;5028211;27;103174;-61
2022/12/11 00:33:47;;;;;;;23.53;16.10;;;;;;;-0.55;85.14;98119.44;5034768;27;103237;-61
2022/12/11 00:36:19;;;;;;;19.30;14.17;;;;;;;-0.19;85.90;98115.44;5026487;27;102658;-62
2022/12/11 00:38:48;;;;;;;23.63;16.73;;;;;;;-0.06;85.57;98115.84;5021332;27;103256;-61
2022/12/11 00:41:17;;;;;;;20.77;15.30;;;;;;;0.03;84.87;98118.06;5033563;27;103334;-61
2022/12/11 00:43:45;;;;;;;20.27;15.23;;;;;;;-0.14;85.31;98112.69;5028855;27;102548;-61
2022/12/11 00:46:13;;;;;;;23.20;16.73;;;;;;;-0.29;85.55;98108.94;5012782;27;102712;-60
2022/12/11 00:48:41;;;;;;;21.67;17.00;;;;;;;-0.25;86.70;98107.03;5037456;27;104148;-61
2022/12/11 00:51:10;;;;;;;18.00;13.13;;;;;;;-0.12;86.67;98103.09;5037943;27;103329;-61
2022/12/11 00:53:40;;;;;;;21.33;16.30;;;;;;;-0.38;86.86;98105.84;5030083;27;102742;-61
2022/12/11 00:56:13;;;;;;;20.03;15.30;;;;;;;-0.07;87.49;98115.00;5011370;27;102754;-60
2022/12/11 00:58:41;;;;;;;23.93;16.43;;;;;;;-0.47;87.77;98112.22;5036960;27;104159;-61
2022/12/11 01:01:11;;;;;;;19.50;13.07;;;;;;;-0.02;88.20;98110.47;5025094;27;103204;-61
2022/12/11 01:03:42;;;;;;;19.73;13.90;;;;;;;0.08;87.67;98121.34;5010481;27;102768;-61
2022/12/11 01:06:13;;;;;;;19.03;14.10;;;;;;;0.26;87.12;98118.00;5010456;27;103582;-61
2022/12/11 01:08:43;;;;;;;19.97;14.77;;;;;;;0.34;86.89;98126.31;5007490;27;103351;-61
2022/12/11 01:11:12;;;;;;;18.10;13.27;;;;;;;0.43;86.10;98120.75;5031230;27;103203;-60
2022/12/11 01:13:42;;;;;;;22.27;16.43;;;;;;;0.29;84.47;98117.03;5016051;27;102757;-62
2022/12/11 01:16:12;;;;;;;17.97;12.77;;;;;;;0.30;84.69;98127.38;5028562;27;102762;-61
2022/12/11 01:18:40;;;;;;;20.87;15.23;;;;;;;0.39;84.98;98131.34;5028785;27;103280;-62
2022/12/11 01:21:11;;;;;;;21.93;15.30;;;;;;;-0.06;85.34;98139.22;5031784;27;103179;-61
2022/12/11 01:23:40;;;;;;;19.53;14.70;;;;;;;0.13;86.35;98144.53;5032518;27;102624;-62
2022/12/11 01:26:12;;;;;;;17.20;12.50;;;;;;;0.34;86.26;98144.50;5013711;27;102737;-61
2022/12/11 01:28:40;;;;;;;21.73;16.73;;;;;;;0.31;85.48;98143.81;5031807;27;103174;-62
2022/12/11 01:31:08;;;;;;;19.97;13.93;;;;;;;0.39;85.80;98150.34;5032622;27;103200;-62
2022/12/11 01:33:37;;;;;;;18.27;12.77;;;;;;;0.53;85.69;98145.44;5012383;27;102759;-61
2022/12/11 01:36:08;;;;;;;17.97;12.50;;;;;;;0.63;85.38;98140.72;5031055;27;104061;-61
2022/12/11 01:38:36;;;;;;;23.40;16.47;;;;;;;0.55;84.80;98143.66;5030005;27;102995;-61
2022/12/11 01:41:04;;;;;;;23.27;15.40;;;;;;;0.56;84.91;98140.13;5030997;27;103213;-61
2022/12/11 01:44:03;;;;;;;19.90;13.27;;;;;;;0.53;85.21;98142.84;5030909;27;102631;-61
2022/12/11 01:46:33;;;;;;;17.83;12.30;;;;;;;0.68;85.64;98140.53;5032444;27;103896;-61
2022/12/11 01:49:03;;;;;;;16.97;12.07;;;;;;;0.70;85.10;98139.59;5033046;27;104291;-61
2022/12/11 01:51:35;;;;;;;19.67;14.20;;;;;;;0.75;84.99;98144.59;5029932;27;103311;-61
2022/12/11 01:54:09;;;;;;;21.70;16.50;;;;;;;0.31;84.40;98144.63;5028591;27;102653;-61
2022/12/11 01:56:41;;;;;;;18.17;12.73;;;;;;;0.33;86.13;98148.03;5009196;27;104574;-61
2022/12/11 01:59:15;;;;;;;20.57;15.13;;;;;;;0.55;86.06;98154.06;5033720;27;103231;-64
2022/12/11 02:01:46;;;;;;;19.13;13.00;;;;;;;0.64;85.73;98155.44;5028087;27;103246;-61
2022/12/11 02:04:15;;;;;;;19.73;14.50;;;;;;;0.64;85.21;98147.63;5012159;27;102658;-61
2022/12/11 02:06:45;;;;;;;20.87;14.83;;;;;;;0.73;84.94;98157.63;5031767;27;102644;-61
2022/12/11 02:09:16;;;;;;;18.77;13.40;;;;;;;0.80;85.06;98153.03;5027193;27;103255;-61
2022/12/11 02:11:56;;;;;;;19.73;15.00;;;;;;;0.77;84.55;98159.22;5034205;27;103211;-61
2022/12/11 02:14:32;;;;;;;23.03;16.93;;;;;;;0.53;85.47;98157.63;5033535;27;102607;-61
2022/12/11 02:17:05;;;;;;;22.30;16.67;;;;;;;0.68;85.47;98163.94;5007826;27;102664;-61
2022/12/11 02:20:02;;;;;;;22.63;16.17;;;;;;;0.75;84.81;98162.78;5030961;27;103265;-61
2022/12/11 02:23:05;;;;;;;22.37;15.50;;;;;;;0.64;84.08;98167.59;5032160;27;103304;-61
2022/12/11 02:25:48;;;;;;;18.90;13.70;;;;;;;0.83;84.30;98158.09;5016765;27;102777;-62
2022/12/11 02:28:23;;;;;;;22.60;16.30;;;;;;;0.83;84.15;98155.50;5017161;27;102854;-61
2022/12/11 02:30:57;;;;;;;24.17;16.70;;;;;;;0.59;84.88;98153.00;5007887;27;103591;-62
2022/12/11 02:33:33;;;;;;;20.40;15.10;;;;;;;0.58;85.40;98143.53;5033940;27;103299;-62
2022/12/11 02:36:03;;;;;;;19.80;14.97;;;;;;;0.63;84.82;98145.06;5032049;27;102961;-61
2022/12/11 02:38:35;;;;;;;22.17;16.63;;;;;;;0.58;85.21;98142.69;5013155;27;102820;-61
2022/12/11 02:41:05;;;;;;;21.97;15.40;;;;;;;0.47;85.59;98150.94;5016424;27;103249;-61
2022/12/11 02:43:36;;;;;;;18.27;13.07;;;;;;;0.76;85.41;98147.09;5024033;27;103209;-61
2022/12/11 02:46:07;;;;;;;17.43;12.73;;;;;;;0.92;84.85;98148.19;5010173;27;102858;-61
2022/12/11 02:48:37;;;;;;;22.70;16.37;;;;;;;0.86;83.82;98152.78;5020159;27;103936;-61
2022/12/11 02:51:07;;;;;;;19.27;15.10;;;;;;;0.61;83.58;98155.56;5032489;27;104008;-61
2022/12/11 02:53:40;;;;;;;20.60;15.37;;;;;;;0.62;83.95;98152.03;5030436;27;103202;-61
2022/12/11 02:56:11;;;;;;;19.60;13.53;;;;;;;0.63;83.66;98152.88;5032525;27;102646;-61
2022/12/11 02:58:47;;;;;;;19.00;14.70;;;;;;;0.61;83.23;98152.09;5036557;27;104133;-62
2022/12/11 03:01:15;;;;;;;19.27;13.90;;;;;;;0.80;83.60;98156.47;5032188;27;103237;-61
2022/12/11 03:03:47;;;;;;;16.47;13.20;;;;;;;0.82;84.02;98154.66;5015280;27;103954;-61
2022/12/11 03:06:20;;;;;;;18.07;13.00;;;;;;;0.91;83.51;98143.88;5036250;27;102579;-61
2022/12/11 03:08:51;;;;;;;20.63;14.77;;;;;;;0.97;83.66;98147.97;5034948;27;102686;-61
2022/12/11 03:11:19;;;;;;;16.77;12.70;;;;;;;0.99;82.67;98148.72;5035515;27;103191;-61
2022/12/11 03:13:48;;;;;;;17.70;13.33;;;;;;;1.01;83.40;98147.75;5032492;27;103188;-61
2022/12/11 03:16:29;;;;;;;21.87;14.53;;;;;;;1.02;82.14;98146.00;5036098;27;102674;-61
2022/12/11 03:19:07;;;;;;;17.70;13.73;;;;;;;1.04;82.58;98144.19;5031296;27;104080;-61
2022/12/11 03:21:41;;;;;;;22.37;15.10;;;;;;;1.02;81.91;98140.81;5012605;27;103914;-61
2022/12/11 03:24:15;;;;;;;17.67;13.13;;;;;;;0.82;82.68;98151.19;5012475;27;104176;-61
2022/12/11 03:26:50;;;;;;;20.07;15.30;;;;;;;0.66;83.54;98144.97;5029958;27;102612;-61
2022/12/11 03:29:30;;;;;;;18.33;13.50;;;;;;;0.93;83.67;98151.59;5030858;27;104091;-62
2022/12/11 03:32:04;;;;;;;21.97;15.53;;;;;;;0.95;82.77;98152.41;5015629;27;102822;-61
2022/12/11 03:34:36;;;;;;;22.57;15.17;;;;;;;0.95;83.23;98152.41;5033745;27;103324;-61
2022/12/11 03:37:06;;;;;;;19.20;14.53;;;;;;;0.98;83.35;98157.47;5031342;27;102729;-62
2022/12/11 03:39:37;;;;;;;20.93;15.07;;;;;;;0.77;83.13;98158.34;5020983;27;103002;-61
2022/12/11 03:42:08;;;;;;;20.63;14.17;;;;;;;0.92;83.54;98147.31;5036415;27;104058;-62
2022/12/11 03:44:38;;;;;;;16.50;11.73;;;;;;;0.91;83.25;98146.47;5032034;27;103178;-61
2022/12/11 03:47:08;;;;;;;18.83;15.00;;;;;;;0.94;82.64;98145.50;5031988;27;103422;-61
2022/12/11 03:49:40;;;;;;;15.77;11.73;;;;;;;0.98;82.67;98153.09;5016121;27;104239;-61
2022/12/11 03:52:11;;;;;;;16.50;11.83;;;;;;;1.07;82.82;98149.25;5033838;27;103258;-61
2022/12/11 03:54:40;;;;;;;19.53;13.13;;;;;;;1.10;82.04;98147.38;5032207;27;103069;-61
2022/12/11 03:57:15;;;;;;;18.17;13.47;;;;;;;1.12;82.18;98145.53;5015551;27;102820;-61
2022/12/11 03:59:45;;;;;;;20.47;15.40;;;;;;;0.98;82.27;98147.88;5036798;27;102713;-61
2022/12/11 04:02:13;;;;;;;18.87;14.53;;;;;;;0.91;83.12;98146.47;5014757;27;104267;-61
2022/12/11 04:04:42;;;;;;;17.60;13.40;;;;;;;0.96;82.84;98138.47;5011916;27;103292;-61
2022/12/11 04:07:10;;;;;;;17.90;12.17;;;;;;;1.09;83.17;98130.09;5031975;27;102599;-61
2022/12/11 04:09:38;;;;;;;17.10;13.13;;;;;;;1.14;82.92;98128.13;5029537;27;104632;-61
2022/12/11 04:12:06;;;;;;;19.13;13.40;;;;;;;1.20;82.60;98129.63;5012686;27;103506;-62
2022/12/11 04:25:34;;;;;;;18.57;14.27;;;;;;;0.93;82.69;98108.22;5038051;27;103299;-61
2022/12/11 04:28:02;;;;;;;20.30;14.37;;;;;;;0.96;83.12;98097.69;5032340;27;102684;-61
2022/12/11 04:30:30;;;;;;;21.23;16.07;;;;;;;0.86;82.83;98111.16;5016951;27;102676;-61
2022/12/11 04:33:05;;;;;;;21.63;16.03;;;;;;;0.85;83.52;98107.72;5032491;27;103231;-62
2022/12/11 04:35:33;;;;;;;19.80;15.23;;;;;;;0.68;84.17;98098.94;5013987;27;103264;-61
2022/12/11 04:38:01;;;;;;;16.90;12.63;;;;;;;0.85;83.97;98104.25;5030838;27;104495;-61
2022/12/11 04:40:29;;;;;;;17.83;12.27;;;;;;;0.87;83.20;98084.25;5011819;27;103718;-61
2022/12/11 04:42:57;;;;;;;17.57;12.40;;;;;;;0.52;82.49;98086.59;5027800;27;103239;-61
2022/12/11 04:45:28;;;;;;;15.27;11.37;;;;;;;0.62;81.72;98091.41;5032530;27;103235;-61
2022/12/11 04:47:56;;;;;;;14.27;10.50;;;;;;;0.72;81.02;98087.50;5011268;27;102942;-61
2022/12/11 04:50:26;;;;;;;14.00;10.47;;;;;;;0.80;79.92;98095.81;5037307;27;103229;-62
2022/12/11 04:52:55;;;;;;;13.67;10.27;;;;;;;0.31;81.43;98113.44;5010896;27;104623;-61
2022/12/11 04:55:23;;;;;;;13.57;10.37;;;;;;;0.13;83.61;98121.16;5032640;27;103255;-62
2022/12/11 04:57:53;;;;;;;14.33;10.53;;;;;;;-0.01;84.37;98124.28;5035644;27;102723;-64
2022/12/11 05:00:22;;;;;;;12.83;9.70;;;;;;;0.34;83.78;98108.13;5030643;27;104149;-61
2022/12/11 05:02:52;;;;;;;14.37;9.50;;;;;;;0.68;83.14;98094.56;5030456;27;103346;-63
2022/12/11 05:05:20;;;;;;;15.73;11.93;;;;;;;0.72;82.03;98103.09;5031784;27;103337;-61
2022/12/11 05:07:52;;;;;;;16.83;12.67;;;;;;;0.70;82.08;98099.72;5033520;27;102655;-61
2022/12/11 05:10:22;;;;;;;15.70;11.97;;;;;;;0.32;82.59;98109.09;5029313;27;103988;-61
2022/12/11 05:12:50;;;;;;;14.50;11.17;;;;;;;0.67;82.76;98095.50;5022412;27;102955;-61
2022/12/11 05:15:18;;;;;;;13.83;10.80;;;;;;;0.72;81.94;98087.50;5032757;27;103313;-61
2022/12/11 05:17:46;;;;;;;15.03;11.17;;;;;;;0.51;80.86;98100.50;5011171;27;102746;-61
2022/12/11 05:20:14;;;;;;;15.93;11.27;;;;;;;-0.48;84.91;98112.28;5030458;27;102950;-61
2022/12/11 05:22:42;;;;;;;16.10;11.57;;;;;;;-0.55;85.35;98114.25;5031693;27;103337;-61
2022/12/11 05:25:11;;;;;;;15.40;11.00;;;;;;;-0.29;85.47;98116.72;5029482;27;103178;-61
2022/12/11 05:27:40;;;;;;;15.73;11.70;;;;;;;-0.37;84.79;98123.09;5008751;27;102642;-61
2022/12/11 05:30:10;;;;;;;16.17;11.83;;;;;;;-0.69;86.81;98132.06;5032836;27;103653;-61
2022/12/11 05:32:37;;;;;;;15.00;12.03;;;;;;;-0.65;87.13;98123.28;5030711;27;104065;-61
2022/12/11 05:35:06;;;;;;;15.60;12.07;;;;;;;-0.32;87.17;98116.00;5034076;27;103830;-61
2022/12/11 05:37:34;;;;;;;20.83;14.17;;;;;;;-0.36;85.70;98115.25;5011569;27;102697;-61
2022/12/11 05:40:03;;;;;;;18.07;13.60;;;;;;;-0.33;86.85;98112.53;5028606;27;102761;-61
2022/12/11 05:42:32;;;;;;;16.67;12.73;;;;;;;-0.11;86.53;98104.75;5027614;27;103235;-60
2022/12/11 05:45:00;;;;;;;18.23;14.10;;;;;;;-0.06;85.32;98108.88;5035716;27;103563;-61
2022/12/11 05:47:28;;;;;;;20.13;15.27;;;;;;;-0.17;84.98;98105.03;5010528;27;102681;-61
2022/12/11 05:49:56;;;;;;;16.30;12.03;;;;;;;-0.29;85.48;98106.34;5034063;27;102989;-61
2022/12/11 05:52:27;;;;;;;18.47;14.33;;;;;;;-0.31;84.42;98107.31;5014490;27;103218;-61
2022/12/11 05:54:55;;;;;;;19.13;14.20;;;;;;;-0.58;86.09;98098.78;5035926;27;103197;-61
2022/12/11 05:57:23;;;;;;;20.33;14.70;;;;;;;-0.65;86.42;98098.19;5027652;27;102575;-61
2022/12/11 05:59:52;;;;;;;21.27;14.63;;;;;;;-0.48;86.38;98094.13;5035055;27;102710;-62
2022/12/11 06:02:20;;;;;;;20.87;14.80;;;;;;;-0.59;86.22;98105.72;5009135;27;104280;-62
2022/12/11 06:04:48;;;;;;;20.43;16.33;;;;;;;-0.76;86.38;98107.28;5008905;27;103219;-62
2022/12/11 06:07:16;;;;;;;24.03;16.37;;;;;;;-0.64;87.92;98105.06;5015718;27;102810;-62
2022/12/11 06:09:44;;;;;;;21.63;14.57;;;;;;;-0.44;86.68;98095.69;5030246;27;102689;-61
2022/12/11 06:12:12;;;;;;;19.20;13.77;;;;;;;-0.27;86.44;98088.09;5013541;27;104378;-61
2022/12/11 06:14:40;;;;;;;15.57;12.33;;;;;;;-0.15;85.60;98090.22;5011334;27;103291;-61
2022/12/11 06:17:10;;;;;;;19.00;12.77;;;;;;;-0.07;85.08;98089.03;5032212;27;102625;-61
2022/12/11 06:19:38;;;;;;;20.97;15.63;;;;;;;-0.23;83.17;98092.28;5032237;27;102606;-61
2022/12/11 06:22:06;;;;;;;22.60;15.80;;;;;;;-0.36;82.94;98088.44;5026355;27;103261;-60
2022/12/11 06:24:34;;;;;;;18.63;13.03;;;;;;;-0.38;84.04;98090.25;5027779;27;103244;-61
2022/12/11 06:27:02;;;;;;;16.47;11.83;;;;;;;-0.18;85.44;98092.94;5012307;27;102703;-61
2022/12/11 06:29:30;;;;;;;16.83;11.90;;;;;;;-0.08;83.84;98099.44;5029133;27;103017;-61
2022/12/11 06:31:58;;;;;;;18.63;12.53;;;;;;;-0.09;83.30;98090.84;5032112;27;102951;-61
2022/12/11 06:34:27;;;;;;;18.67;12.93;;;;;;;-0.11;82.82;98089.19;5030724;27;103153;-61
2022/12/11 06:36:55;;;;;;;14.50;10.33;;;;;;;-0.13;82.75;98080.63;5016521;27;102645;-60
2022/12/11 06:39:25;;;;;;;17.40;13.33;;;;;;;-0.14;82.79;98071.97;5015133;27;102833;-61
2022/12/11 06:41:53;;;;;;;18.93;11.60;;;;;;;-0.15;82.43;98074.66;5031822;27;104019;-61
2022/12/11 06:44:23;;;;;;;19.07;13.63;;;;;;;-0.23;81.81;98074.97;5032128;27;103721;-61
2022/12/11 06:46:52;;;;;;;20.50;14.63;;;;;;;-0.32;82.17;98069.25;5030679;27;102695;-61
2022/12/11 06:49:20;;;;;;;17.37;12.47;;;;;;;-0.28;82.70;98071.66;5012370;27;102830;-61
2022/12/11 06:51:49;;;;;;;20.57;14.10;;;;;;;-0.31;83.40;98082.16;5017434;27;103284;-61
2022/12/11 06:54:17;;;;;;;16.53;12.57;;;;;;;-0.26;83.11;98079.41;5036542;27;103281;-61
2022/12/11 06:56:46;;;;;;;18.87;13.90;;;;;;;-0.43;83.97;98087.00;5016587;27;102713;-62
2022/12/11 06:59:14;;;;;;;19.90;14.63;;;;;;;-0.49;84.93;98095.00;5031697;27;102590;-62
2022/12/11 07:01:42;;;;;;;22.00;15.50;;;;;;;-0.46;84.86;98094.91;5027146;27;102929;-62
2022/12/11 07:04:10;;;;;;;20.23;14.73;;;;;;;-0.44;84.78;98106.06;5035385;27;102986;-61
2022/12/11 07:06:38;;;;;;;21.80;14.67;;;;;;;-0.54;85.50;98110.78;5032279;27;102595;-62
2022/12/11 07:09:08;;;;;;;20.47;14.43;;;;;;;-0.37;85.17;98112.72;5013204;27;102715;-61
2022/12/11 07:11:36;;;;;;;18.97;12.67;;;;;;;-0.25;84.51;98117.44;5032273;27;103261;-61
2022/12/11 07:14:04;;;;;;;17.23;12.63;;;;;;;-0.15;84.44;98118.78;5034849;27;103280;-61
2022/12/11 07:16:32;;;;;;;21.07;13.63;;;;;;;-0.10;84.45;98116.84;5029900;27;102662;-62
2022/12/11 07:19:00;;;;;;;21.07;15.57;;;;;;;-0.08;83.71;98110.69;5011898;27;102998;-61
2022/12/11 07:21:31;;;;;;;20.87;15.77;;;;;;;-0.22;83.98;98109.53;5038729;27;103214;-61
2022/12/11 07:23:59;;;;;;;22.20;15.33;;;;;;;-0.26;84.36;98105.38;5013301;27;103485;-61
2022/12/11 07:26:28;;;;;;;21.17;14.33;;;;;;;-0.13;84.55;98114.38;5034010;27;102607;-61
2022/12/11 07:28:57;;;;;;;20.33;14.60;;;;;;;-0.11;85.12;98105.63;5012407;27;102899;-61
2022/12/11 07:31:27;;;;;;;21.57;15.43;;;;;;;-0.54;85.38;98109.91;5038799;27;104583;-61
2022/12/11 07:33:57;;;;;;;19.57;13.30;;;;;;;-0.31;85.99;98102.94;5031485;27;103263;-61
2022/12/11 07:36:26;;;;;;;19.37;13.43;;;;;;;-0.06;86.23;98118.44;5032227;27;102660;-61
2022/12/11 07:38:55;;;;;;;17.57;12.67;;;;;;;0.05;85.53;98121.47;5029748;27;103708;-61
2022/12/11 07:41:24;;;;;;;20.47;13.03;;;;;;;0.17;85.49;98120.13;5036692;27;103220;-62
2022/12/11 07:43:56;;;;;;;19.30;14.20;;;;;;;0.02;84.53;98115.53;5011572;27;103363;-61
2022/12/11 07:46:26;;;;;;;19.63;13.90;;;;;;;0.21;85.12;98122.53;5028702;27;102685;-61
2022/12/11 07:48:54;;;;;;;19.93;14.43;;;;;;;0.29;84.54;98119.63;5030295;27;102635;-61
2022/12/11 07:51:26;;;;;;;19.70;14.80;;;;;;;0.19;84.11;98118.31;5021970;27;103266;-63
2022/12/11 07:53:56;;;;;;;20.67;14.67;;;;;;;0.22;84.40;98115.59;5031385;27;103227;-62
2022/12/11 07:56:28;;;;;;;18.60;14.97;;;;;;;0.10;83.83;98116.91;5028114;27;102759;-61
2022/12/11 07:58:59;;;;;;;21.27;16.03;;;;;;;0.12;84.13;98116.84;5029746;27;102659;-61
2022/12/11 08:01:29;;;;;;;17.60;12.57;;;;;;;0.25;84.40;98116.31;5011336;27;103218;-61
2022/12/11 08:03:57;;;;;;;18.80;12.57;;;;;;;0.42;84.18;98113.03;5030088;27;103164;-61
2022/12/11 08:06:27;;;;;;;19.67;14.43;;;;;;;0.48;84.16;98111.00;5033792;27;102572;-61
2022/12/11 08:08:56;;;;;;;17.43;12.17;;;;;;;0.57;83.82;98118.44;5032157;27;103849;-61
2022/12/11 08:11:25;;;;;;;21.17;13.60;;;;;;;0.50;83.89;98110.97;5030488;27;104260;-61
2022/12/11 08:13:54;;;;;;;19.80;12.93;;;;;;;0.51;83.37;98108.28;5029719;27;102961;-61
2022/12/11 08:16:23;;;;;;;17.63;12.43;;;;;;;0.66;83.83;98105.97;5031814;27;103182;-61
2022/12/11 08:18:52;;;;;;;16.57;12.60;;;;;;;0.72;83.44;98108.31;5034639;27;102681;-62
2022/12/11 08:21:22;;;;;;;18.40;14.20;;;;;;;0.69;82.95;98104.09;5029351;27;104054;-61
2022/12/11 08:23:51;;;;;;;20.23;14.97;;;;;;;0.74;83.38;98106.47;5014416;27;104940;-61
2022/12/11 08:26:21;;;;;;;16.30;11.73;;;;;;;0.71;82.97;98110.06;5006436;27;102660;-61
2022/12/11 08:28:49;;;;;;;18.53;13.63;;;;;;;0.66;82.44;98112.00;5011375;27;104096;-61
2022/12/11 08:31:18;;;;;;;17.87;13.50;;;;;;;0.49;83.17;98109.25;5028171;27;103192;-61
2022/12/11 08:33:48;;;;;;;20.13;13.60;;;;;;;0.59;83.37;98111.41;5030024;27;103338;-62
2022/12/11 08:36:20;;;;;;;19.33;13.17;;;;;;;0.64;82.78;98115.59;5010156;27;103230;-62
2022/12/11 08:38:49;;;;;;;17.97;12.13;;;;;;;0.76;83.39;98104.69;5022141;27;103106;-60
2022/12/11 08:41:20;;;;;;;16.07;11.83;;;;;;;0.81;83.08;98113.13;5020420;27;103648;-61
2022/12/11 08:43:51;;;;;;;17.23;14.60;;;;;;;0.82;83.36;98112.19;5006364;27;103230;-62
2022/12/11 08:46:19;;;;;;;19.60;13.67;;;;;;;0.76;83.37;98120.28;5022379;27;103171;-61
2022/12/11 08:48:50;;;;;;;17.27;12.23;;;;;;;0.86;83.79;98112.00;5021445;27;103065;-61
2022/12/11 08:51:20;;;;;;;18.37;13.53;;;;;;;0.89;83.94;98121.44;5029547;27;104730;-62
2022/12/11 08:53:48;;;;;;;20.73;14.73;;;;;;;0.89;83.83;98121.44;5017516;27;103167;-61
2022/12/11 08:56:20;;;;;;;17.73;14.57;;;;;;;0.89;84.33;98122.28;5009442;27;102757;-64
2022/12/11 08:58:48;;;;;;;18.73;13.43;;;;;;;1.02;84.32;98117.38;5022075;27;102986;-62
2022/12/11 09:01:20;;;;;;;23.83;17.87;;;;;;;1.03;84.19;98106.09;5023264;27;103259;-61
2022/12/11 09:03:51;;;;;;;20.97;15.47;;;;;;;1.11;83.88;98106.59;5002349;27;103237;-61
2022/12/11 09:06:22;;;;;;;18.50;13.57;;;;;;;1.16;84.02;98100.28;4997496;27;102849;-61
2022/12/11 09:08:52;;;;;;;18.60;13.47;;;;;;;1.32;83.77;98099.59;5018525;27;102715;-61
2022/12/11 09:11:23;;;;;;;20.03;13.97;;;;;;;1.36;82.77;98102.00;5021815;27;103404;-62
2022/12/11 09:13:51;;;;;;;17.47;13.10;;;;;;;1.46;83.03;98102.44;4996141;27;103258;-61
2022/12/11 09:16:21;;;;;;;21.70;15.10;;;;;;;1.52;81.98;98097.78;5005603;27;102859;-61
2022/12/11 09:18:53;;;;;;;20.40;14.50;;;;;;;1.49;81.30;98110.06;5011116;27;102735;-61
2022/12/11 09:21:24;;;;;;;19.17;12.80;;;;;;;1.37;82.24;98098.47;4996629;27;103222;-61
2022/12/11 09:23:54;;;;;;;20.00;13.17;;;;;;;1.60;81.89;98094.84;4998708;27;103415;-61
2022/12/11 09:26:26;;;;;;;22.33;16.23;;;;;;;1.69;80.67;98090.03;5030007;27;102703;-60
2022/12/11 09:28:54;;;;;;;18.70;14.20;;;;;;;1.71;81.41;98098.63;5023547;27;102616;-61
2022/12/11 09:31:24;;;;;;;20.07;14.40;;;;;;;1.85;80.52;98095.41;5022652;27;103186;-61
2022/12/11 09:33:58;;;;;;;21.53;15.23;;;;;;;1.94;80.14;98099.31;5021190;27;103372;-61
2022/12/11 09:36:27;;;;;;;20.00;14.17;;;;;;;1.97;78.82;98088.72;5008744;27;102607;-61
2022/12/11 09:38:55;;;;;;;20.33;14.23;;;;;;;2.06;80.16;98093.50;5021795;27;103208;-61
2022/12/11 09:41:37;;;;;;;19.27;12.67;;;;;;;2.14;78.25;98092.22;5027457;27;103450;-62
2022/12/11 09:44:20;;;;;;;19.43;14.37;;;;;;;2.18;77.79;98087.72;4984903;28;103237;-61
2022/12/11 09:46:49;;;;;;;20.67;14.37;;;;;;;0.91;79.99;98109.22;5022219;27;103226;-61
2022/12/11 09:49:26;;;;;;;19.93;14.77;;;;;;;1.44;81.22;98093.81;5021915;27;103857;-62
2022/12/11 09:52:03;;;;;;;22.77;15.37;;;;;;;1.27;80.74;98101.53;5023437;27;103268;-61
2022/12/11 09:54:32;;;;;;;20.90;15.13;;;;;;;1.37;81.24;98093.28;5016732;27;104267;-61
2022/12/11 09:57:13;;;;;;;20.43;15.37;;;;;;;1.25;81.67;98093.81;5009150;27;103338;-61
2022/12/11 09:59:58;;;;;;;20.97;15.37;;;;;;;1.26;81.24;98085.13;5026203;27;102565;-61
2022/12/11 10:02:46;;;;;;;20.77;14.83;;;;;;;1.11;80.75;98085.78;5001361;27;103231;-63
2022/12/11 10:05:22;;;;;;;16.17;11.87;;;;;;;1.69;81.30;98084.81;5025002;27;103193;-62
2022/12/11 10:07:59;;;;;;;25.47;14.57;;;;;;;1.63;80.99;98085.09;5014544;27;103206;-61
2022/12/11 10:10:41;;;;;;;19.27;13.63;;;;;;;1.90;80.85;98082.13;5024574;27;102830;-61
2022/12/11 10:13:22;;;;;;;17.57;12.40;;;;;;;1.89;79.52;98076.09;5023940;27;103259;-61
2022/12/11 10:15:54;;;;;;;17.37;12.37;;;;;;;2.05;79.43;98076.22;5021908;27;103257;-61
2022/12/11 10:18:24;;;;;;;25.33;16.43;;;;;;;1.91;79.66;98076.03;5021948;27;102981;-61
2022/12/11 10:20:55;;;;;;;19.83;13.07;;;;;;;2.25;80.64;98078.69;5024281;27;104051;-61
2022/12/11 10:23:34;;;;;;;22.27;15.53;;;;;;;1.89;77.81;98067.41;5025690;27;103023;-61
2022/12/11 10:26:05;;;;;;;20.57;14.03;;;;;;;2.09;80.64;98062.94;5017857;27;103174;-61
2022/12/11 10:28:35;;;;;;;24.33;16.10;;;;;;;1.95;78.35;98054.09;4996970;27;103155;-61
2022/12/11 10:31:15;;;;;;;19.20;13.67;;;;;;;1.80;80.03;98052.25;5005222;27;102822;-61
2022/12/11 10:33:59;;;;;;;18.97;13.60;;;;;;;1.23;81.82;98059.22;4992978;27;105987;-62
2022/12/11 10:36:32;;;;;;;19.70;14.73;;;;;;;1.46;81.29;98053.78;5022697;27;103730;-62
2022/12/11 10:39:01;;;;;;;20.37;14.30;;;;;;;1.55;80.04;98048.16;5026816;27;102710;-62
2022/12/11 10:41:36;;;;;;;21.47;15.57;;;;;;;1.44;80.05;98047.81;5028221;27;102752;-62
2022/12/11 10:44:16;;;;;;;23.07;16.53;;;;;;;1.54;79.39;98043.91;5023618;27;103417;-62
2022/12/11 10:46:45;;;;;;;24.57;17.67;;;;;;;1.82;79.08;98050.41;5022869;27;103256;-64
2022/12/11 10:49:25;;;;;;;21.57;15.47;;;;;;;1.68;79.54;98038.03;5018670;27;102737;-63
2022/12/11 10:51:55;;;;;;;23.37;16.10;;;;;;;1.76;79.85;98033.31;5027062;27;102988;-63
2022/12/11 10:54:33;;;;;;;24.53;16.17;;;;;;;1.37;81.48;98036.03;5021319;27;103517;-62
2022/12/11 10:57:03;;;;;;;21.70;16.47;;;;;;;1.55;81.64;98029.94;5006421;27;103203;-63
2022/12/11 10:59:36;;;;;;;22.53;15.87;;;;;;;1.09;82.85;98027.78;5023972;27;102904;-62
2022/12/11 11:02:07;;;;;;;21.83;16.93;;;;;;;1.27;83.86;98026.06;5023806;27;103117;-62
2022/12/11 11:04:37;;;;;;;22.43;15.73;;;;;;;1.33;82.24;98028.41;5025065;27;103205;-61
2022/12/11 11:07:13;;;;;;;21.53;15.50;;;;;;;1.35;82.66;98031.81;5008357;27;103185;-61
2022/12/11 11:09:42;;;;;;;24.27;16.80;;;;;;;1.42;81.59;98022.78;5022399;27;102729;-62
2022/12/11 11:12:24;;;;;;;22.10;16.23;;;;;;;1.29;82.17;98021.66;5018985;27;102787;-61
2022/12/11 11:15:00;;;;;;;23.53;16.43;;;;;;;1.26;82.13;98024.41;5026111;27;103013;-62
2022/12/11 11:17:31;;;;;;;22.93;16.70;;;;;;;1.39;82.50;98022.91;5015414;27;103214;-62
2022/12/11 11:20:12;;;;;;;22.60;17.00;;;;;;;1.56;81.24;98016.03;5015092;27;103215;-61
2022/12/11 11:22:46;;;;;;;24.97;16.30;;;;;;;1.73;80.98;98015.22;5015900;27;104105;-62
2022/12/11 11:25:21;;;;;;;22.33;16.90;;;;;;;1.96;80.08;98009.75;5028022;27;102874;-61
2022/12/11 11:27:52;;;;;;;22.77;16.10;;;;;;;2.41;80.01;98009.25;5024436;27;103382;-61
2022/12/11 11:30:24;;;;;;;19.67;14.30;;;;;;;2.53;78.24;98006.00;5003296;27;102693;-62
2022/12/11 11:32:55;;;;;;;19.73;14.97;;;;;;;2.58;76.85;98003.16;5021465;27;103959;-61
2022/12/11 11:35:28;;;;;;;18.33;12.80;;;;;;;2.75;76.78;98006.56;5016701;27;103683;-61
2022/12/11 11:38:09;;;;;;;18.67;12.87;;;;;;;2.02;75.66;98001.63;5023618;27;103258;-63
2022/12/11 11:40:45;;;;;;;16.73;12.87;;;;;;;2.11;75.81;98002.94;5028804;27;102864;-61
2022/12/11 11:43:21;;;;;;;20.60;14.50;;;;;;;1.81;76.78;98000.06;5026325;27;103547;-61